createdAt,value
2022-12-11T00:00:17.279Z,123.15
2022-12-11T00:03:19.673Z,134.15
2022-12-11T00:06:23.193Z,107.43
2022-12-11T00:09:25.489Z,112.18
2022-12-11T00:12:29.822Z,118.63
2022-12-11T00:15:32.310Z,123.68
2022-12-11T00:18:34.935Z,115.43
2022-12-11T00:21:37.263Z,112.18
2022-12-11T00:24:39.534Z,111.22
2022-12-11T00:27:43.085Z,111.88
2022-12-11T00:30:45.794Z,125.00
2022-12-11T00:33:51.337Z,132.27
2022-12-11T00:36:53.789Z,129.65
2022-12-11T00:39:56.140Z,132.25
2022-12-11T00:42:59.849Z,122.53
2022-12-11T00:46:02.287Z,129.48
2022-12-11T00:49:04.624Z,139.30
2022-12-11T00:52:06.970Z,127.30
2022-12-11T00:55:09.700Z,134.73
2022-12-11T00:58:14.166Z,143.15
2022-12-11T01:01:18.924Z,136.80
2022-12-11T01:04:21.447Z,127.88
2022-12-11T01:07:23.655Z,123.55
2022-12-11T01:10:26.237Z,122.50
2022-12-11T01:13:30.088Z,124.30
2022-12-11T01:16:32.746Z,115.95
2022-12-11T01:19:35.199Z,123.90
2022-12-11T01:22:37.504Z,115.90
2022-12-11T01:25:40.035Z,122.88
2022-12-11T01:28:44.237Z,118.13
2022-12-11T01:31:46.552Z,108.97
2022-12-11T01:34:48.937Z,111.68
2022-12-11T01:37:51.258Z,117.05
2022-12-11T01:40:53.670Z,122.97
2022-12-11T01:44:02.143Z,111.20
2022-12-11T01:47:04.500Z,110.57
2022-12-11T01:50:07.424Z,114.65
2022-12-11T01:53:13.901Z,116.88
2022-12-11T01:56:16.258Z,108.63
2022-12-11T01:59:23.373Z,99.45
2022-12-11T02:02:28.619Z,109.70
2022-12-11T02:05:31.055Z,115.97
2022-12-11T02:08:33.401Z,107.32
2022-12-11T02:11:46.227Z,113.70
2022-12-11T02:14:53.452Z,126.05
2022-12-11T02:18:02.020Z,114.18
2022-12-11T02:21:08.900Z,91.60
2022-12-11T02:24:23.790Z,109.45
2022-12-11T02:27:33.392Z,97.22
2022-12-11T02:30:38.175Z,117.38
2022-12-11T02:33:43.861Z,102.38
2022-12-11T02:36:50.774Z,100.47
2022-12-11T02:39:54.492Z,123.00
2022-12-11T02:42:58.125Z,100.93
2022-12-11T02:46:03.739Z,93.40
2022-12-11T02:49:07.197Z,84.80
2022-12-11T02:52:11.450Z,94.68
2022-12-11T02:55:15.268Z,91.60
2022-12-11T02:58:20.092Z,95.13
2022-12-11T03:01:23.847Z,106.88
2022-12-11T03:04:26.251Z,90.93
2022-12-11T03:07:33.247Z,94.35
2022-12-11T03:10:35.726Z,91.40
2022-12-11T03:13:40.457Z,87.85
2022-12-11T03:16:55.139Z,96.32
2022-12-11T03:20:06.439Z,95.07
2022-12-11T03:23:16.883Z,92.43
2022-12-11T03:26:21.167Z,88.05
2022-12-11T03:29:25.599Z,76.43
2022-12-11T03:32:31.772Z,85.88
2022-12-11T03:35:35.896Z,80.80
2022-12-11T03:38:42.682Z,82.45
2022-12-11T03:41:46.258Z,99.43
2022-12-11T03:44:50.091Z,83.05
2022-12-11T03:47:53.979Z,78.90
2022-12-11T03:50:56.605Z,83.53
2022-12-11T03:53:59.553Z,72.95
2022-12-11T03:57:02.915Z,75.15
2022-12-11T04:00:06.471Z,64.00
2022-12-11T04:03:16.407Z,82.57
2022-12-11T04:06:18.701Z,85.05
2022-12-11T04:09:21.061Z,77.68
2022-12-11T04:12:23.362Z,71.38
2022-12-11T04:15:25.627Z,88.75
2022-12-11T04:18:47.812Z,81.93
2022-12-11T04:25:11.100Z,70.40
2022-12-11T04:28:13.966Z,67.20
2022-12-11T04:31:19.943Z,67.50
2022-12-11T04:34:23.750Z,68.28
2022-12-11T04:37:27.256Z,72.00
2022-12-11T04:40:29.511Z,66.85
2022-12-11T04:43:32.290Z,67.32
2022-12-11T04:46:34.936Z,64.18
2022-12-11T04:49:38.680Z,64.28
2022-12-11T04:52:41.010Z,56.15
2022-12-11T04:55:43.282Z,64.32
2022-12-11T04:58:46.728Z,55.88
2022-12-11T05:01:49.037Z,53.33
2022-12-11T05:04:52.685Z,54.33
2022-12-11T05:07:54.956Z,56.38
2022-12-11T05:10:58.077Z,69.20
2022-12-11T05:14:00.432Z,66.30
2022-12-11T05:17:02.706Z,59.55
2022-12-11T05:20:07.814Z,61.80
2022-12-11T05:23:10.080Z,53.95
2022-12-11T05:26:14.381Z,56.58
2022-12-11T05:29:17.025Z,57.30
2022-12-11T05:32:19.294Z,56.42
2022-12-11T05:35:22.939Z,56.40
2022-12-11T05:38:25.501Z,60.13
2022-12-11T05:41:30.554Z,60.95
2022-12-11T05:44:32.985Z,58.10
2022-12-11T05:47:35.203Z,59.75
2022-12-11T05:50:38.941Z,62.92
2022-12-11T05:53:43.991Z,61.35
2022-12-11T05:56:46.283Z,59.33
2022-12-11T05:59:48.664Z,55.13
2022-12-11T06:02:51.073Z,51.08
2022-12-11T06:05:54.817Z,57.75
2022-12-11T06:08:58.056Z,56.15
2022-12-11T06:12:00.355Z,54.47
2022-12-11T06:15:02.696Z,68.72
2022-12-11T06:18:05.079Z,60.53
2022-12-11T06:21:14.473Z,56.40
2022-12-11T06:24:16.728Z,65.28
2022-12-11T06:27:19.470Z,65.40
2022-12-11T06:30:21.884Z,57.38
2022-12-11T06:33:40.771Z,61.33
2022-12-11T06:36:44.501Z,59.45
2022-12-11T06:39:46.747Z,61.63
2022-12-11T06:42:49.080Z,63.67
2022-12-11T06:45:51.755Z,55.97
2022-12-11T06:48:54.062Z,64.97
2022-12-11T06:51:58.503Z,64.47
2022-12-11T06:55:00.795Z,63.45
2022-12-11T06:58:05.634Z,62.97
2022-12-11T07:01:14.822Z,65.57
2022-12-11T07:04:17.200Z,63.20
2022-12-11T07:07:20.953Z,68.28
2022-12-11T07:10:23.401Z,77.25
2022-12-11T07:13:25.939Z,69.00
2022-12-11T07:16:28.513Z,66.60
2022-12-11T07:19:31.529Z,65.63
2022-12-11T07:22:35.447Z,62.20
2022-12-11T07:25:38.116Z,68.85
2022-12-11T07:28:41.070Z,68.22
2022-12-11T07:31:43.431Z,67.22
2022-12-11T07:34:50.148Z,64.50
2022-12-11T07:37:55.413Z,65.63
2022-12-11T07:41:01.413Z,72.60
2022-12-11T07:44:04.163Z,64.15
2022-12-11T07:47:06.451Z,62.78
2022-12-11T07:50:09.451Z,60.15
2022-12-11T07:53:13.108Z,56.50
2022-12-11T07:56:15.967Z,55.67
2022-12-11T07:59:18.310Z,59.08
2022-12-11T08:02:22.096Z,52.75
2022-12-11T08:05:24.670Z,61.22
2022-12-11T08:08:28.385Z,53.25
2022-12-11T08:11:31.022Z,52.58
2022-12-11T08:14:33.491Z,65.07
2022-12-11T08:17:39.988Z,57.55
2022-12-11T08:20:42.681Z,57.60
2022-12-11T08:23:48.520Z,63.38
2022-12-11T08:26:51.835Z,56.00
2022-12-11T08:29:54.216Z,58.28
2022-12-11T08:32:56.589Z,64.93
2022-12-11T08:35:58.873Z,57.47
2022-12-11T08:39:02.509Z,66.35
2022-12-11T08:42:07.841Z,53.83
2022-12-11T08:45:11.539Z,52.13
2022-12-11T08:48:14.500Z,59.63
2022-12-11T08:51:18.769Z,56.97
2022-12-11T08:54:22.695Z,62.63
2022-12-11T08:57:25.227Z,57.40
2022-12-11T09:00:28.699Z,66.15
2022-12-11T09:03:31.108Z,57.15
2022-12-11T09:06:33.634Z,59.10
2022-12-11T09:09:37.462Z,56.58
2022-12-11T09:12:42.988Z,54.75
2022-12-11T09:15:45.430Z,62.17
2022-12-11T09:18:49.513Z,65.43
2022-12-11T09:21:51.846Z,51.85
2022-12-11T09:24:55.744Z,63.92
2022-12-11T09:27:58.434Z,59.58
2022-12-11T09:31:01.515Z,63.80
2022-12-11T09:34:06.562Z,67.55
2022-12-11T09:37:09.543Z,69.13
2022-12-11T09:40:13.905Z,63.92
2022-12-11T09:43:26.986Z,63.72
2022-12-11T09:46:33.986Z,64.45
2022-12-11T09:49:39.997Z,56.78
2022-12-11T09:52:53.895Z,64.35
2022-12-11T09:56:03.036Z,61.00
2022-12-11T09:59:12.337Z,74.22
2022-12-11T10:02:24.718Z,71.57
2022-12-11T10:05:31.009Z,61.83
2022-12-11T10:08:40.240Z,72.53
2022-12-11T10:11:59.062Z,67.10
2022-12-11T10:15:15.364Z,71.75
2022-12-11T10:18:22.962Z,68.45
2022-12-11T10:21:26.287Z,72.38
2022-12-11T10:25:09.416Z,74.32
2022-12-11T10:27:58.573Z,75.32
2022-12-11T10:31:06.845Z,76.80
2022-12-11T10:34:13.631Z,75.40
2022-12-11T10:37:16.062Z,70.35
2022-12-11T10:40:19.148Z,67.95
2022-12-11T10:43:32.741Z,72.47
2022-12-11T10:46:37.234Z,75.97
2022-12-11T10:49:43.975Z,79.38
2022-12-11T10:52:46.429Z,90.90
2022-12-11T10:55:49.381Z,95.32
2022-12-11T10:58:53.262Z,94.40
2022-12-11T11:01:55.761Z,98.15
2022-12-11T11:04:59.334Z,103.25
2022-12-11T11:08:16.270Z,104.70
2022-12-11T11:11:28.254Z,95.75
2022-12-11T11:14:32.258Z,100.47
2022-12-11T11:17:52.770Z,115.28
2022-12-11T11:20:57.293Z,128.57
2022-12-11T11:24:00.110Z,113.05
2022-12-11T11:27:13.702Z,126.03
2022-12-11T11:30:21.635Z,110.32
2022-12-11T11:33:24.622Z,120.07
2022-12-11T11:36:28.910Z,107.97
2022-12-11T11:39:37.620Z,96.63
2022-12-11T11:42:45.910Z,94.68
2022-12-11T11:45:55.768Z,117.63
2022-12-11T11:49:04.715Z,100.63
2022-12-11T11:52:15.197Z,92.82
2022-12-11T11:55:22.594Z,103.30
2022-12-11T11:58:29.115Z,83.13
2022-12-11T12:01:33.040Z,86.07
2022-12-11T12:04:36.854Z,79.38
2022-12-11T12:07:46.026Z,72.57
2022-12-11T12:11:00.890Z,78.47
2022-12-11T12:14:29.120Z,79.00
2022-12-11T12:17:42.262Z,79.13
2022-12-11T12:20:50.788Z,70.15
2022-12-11T12:24:03.128Z,73.05
2022-12-11T12:27:50.124Z,61.55
2022-12-11T12:30:44.951Z,62.55
2022-12-11T12:33:57.878Z,71.82
2022-12-11T12:37:06.893Z,68.40
2022-12-11T12:40:15.144Z,75.45
2022-12-11T12:43:40.369Z,81.43
2022-12-11T12:46:52.015Z,86.00
2022-12-11T12:49:56.100Z,84.00
2022-12-11T12:52:58.685Z,88.57
2022-12-11T12:56:02.154Z,88.53
2022-12-11T12:59:04.528Z,71.95
2022-12-11T13:02:13.581Z,66.28
2022-12-11T13:05:25.229Z,81.50
2022-12-11T13:08:30.818Z,79.50
2022-12-11T13:11:34.365Z,78.10
2022-12-11T13:14:36.627Z,80.80
2022-12-11T13:17:39.231Z,59.20
2022-12-11T13:20:51.084Z,68.28
2022-12-11T13:26:55.867Z,72.78
2022-12-11T13:30:06.770Z,70.55
2022-12-11T13:33:21.182Z,71.22
2022-12-11T13:36:31.807Z,75.63
2022-12-11T13:39:35.704Z,73.93
2022-12-11T13:42:42.269Z,69.75
2022-12-11T13:45:50.676Z,68.47
2022-12-11T13:49:00.725Z,64.05
2022-12-11T13:52:07.050Z,66.60
2022-12-11T13:55:20.784Z,56.45
2022-12-11T13:58:23.793Z,51.35
2022-12-11T14:01:28.137Z,49.35
2022-12-11T14:04:31.665Z,57.10
2022-12-11T14:07:38.112Z,52.38
2022-12-11T14:10:40.462Z,48.65
2022-12-11T14:13:43.516Z,51.97
2022-12-11T14:16:49.037Z,60.72
2022-12-11T14:19:53.773Z,58.53
2022-12-11T14:23:06.530Z,59.83
2022-12-11T14:26:17.526Z,60.47
2022-12-11T14:29:28.118Z,59.00
2022-12-11T14:32:33.103Z,66.90
2022-12-11T14:35:39.407Z,57.45
2022-12-11T14:38:46.282Z,49.88
2022-12-11T14:41:52.813Z,52.15
2022-12-11T14:44:57.623Z,51.90
2022-12-11T14:48:03.200Z,54.65
2022-12-11T14:51:07.698Z,57.90
2022-12-11T14:54:20.401Z,53.65
2022-12-11T14:57:24.993Z,47.25
2022-12-11T15:00:29.278Z,44.00
2022-12-11T15:03:34.255Z,47.33
2022-12-11T15:06:44.275Z,52.42
2022-12-11T15:09:51.076Z,49.97
2022-12-11T15:12:53.971Z,48.90
2022-12-11T15:15:56.865Z,55.45
2022-12-11T15:19:00.162Z,53.17
2022-12-11T15:22:03.918Z,61.15
2022-12-11T15:25:17.928Z,52.85
2022-12-11T15:28:26.987Z,55.88
2022-12-11T15:31:32.112Z,55.65
2022-12-11T15:34:35.709Z,51.20
2022-12-11T15:37:40.077Z,64.28
2022-12-11T15:40:43.686Z,58.67
2022-12-11T15:43:46.020Z,65.30
2022-12-11T15:46:48.317Z,66.57
2022-12-11T15:49:54.551Z,58.75
2022-12-11T15:53:00.934Z,58.65
2022-12-11T15:56:05.469Z,63.72
2022-12-11T15:59:08.100Z,54.00
2022-12-11T16:02:11.791Z,59.45
2022-12-11T16:05:14.795Z,54.92
2022-12-11T16:08:19.105Z,58.38
2022-12-11T16:11:22.860Z,55.42
2022-12-11T16:14:25.514Z,55.25
2022-12-11T16:17:27.818Z,52.47
2022-12-11T16:20:30.909Z,53.35
2022-12-11T16:23:33.184Z,57.13
2022-12-11T16:26:36.851Z,51.92
2022-12-11T16:29:41.462Z,57.33
2022-12-11T16:32:43.798Z,61.60
2022-12-11T16:35:46.251Z,52.28
2022-12-11T16:38:53.499Z,57.95
2022-12-11T16:41:57.672Z,61.72
2022-12-11T16:45:04.272Z,61.53
2022-12-11T16:48:06.898Z,57.20
2022-12-11T16:51:09.117Z,59.60
2022-12-11T16:54:12.270Z,63.58
2022-12-11T16:57:15.971Z,52.13
2022-12-11T17:00:18.468Z,51.15
2022-12-11T17:03:20.742Z,62.78
2022-12-11T17:06:23.306Z,54.22
2022-12-11T17:09:25.872Z,56.78
2022-12-11T17:12:30.614Z,55.50
2022-12-11T17:15:32.992Z,64.78
2022-12-11T17:18:35.495Z,60.40
2022-12-11T17:21:40.494Z,58.05
2022-12-11T17:24:42.815Z,55.55
2022-12-11T17:27:46.447Z,56.92
2022-12-11T17:30:49.973Z,62.25
2022-12-11T17:33:53.948Z,55.25
2022-12-11T17:36:56.261Z,65.43
2022-12-11T17:39:58.690Z,51.00
2022-12-11T17:43:06.454Z,55.30
2022-12-11T17:46:10.465Z,52.22
2022-12-11T17:49:13.152Z,62.78
2022-12-11T17:52:15.436Z,66.40
2022-12-11T17:55:17.971Z,61.00
2022-12-11T17:58:22.995Z,60.10
2022-12-11T18:01:25.286Z,49.72
2022-12-11T18:04:28.426Z,57.35
2022-12-11T18:07:30.633Z,55.42
2022-12-11T18:10:35.836Z,62.13
2022-12-11T18:13:39.981Z,64.40
2022-12-11T18:16:42.326Z,61.10
2022-12-11T18:19:46.248Z,60.45
2022-12-11T18:22:48.637Z,67.05
2022-12-11T18:25:52.470Z,70.13
2022-12-11T18:28:56.046Z,59.92
2022-12-11T18:31:58.532Z,60.90
2022-12-11T18:35:02.293Z,65.07
2022-12-11T18:38:04.466Z,57.08
2022-12-11T18:41:08.364Z,60.78
2022-12-11T18:44:11.966Z,61.10
2022-12-11T18:47:14.351Z,60.38
2022-12-11T18:50:16.850Z,54.58
2022-12-11T18:53:19.572Z,56.70
2022-12-11T18:56:22.189Z,62.95
2022-12-11T18:59:27.091Z,57.65
2022-12-11T19:02:29.320Z,56.78
2022-12-11T19:05:33.230Z,58.58
2022-12-11T19:08:35.537Z,61.53
2022-12-11T19:11:39.549Z,60.08
2022-12-11T19:14:43.238Z,55.83
2022-12-11T19:17:45.572Z,53.47
2022-12-11T19:20:51.765Z,64.93
2022-12-11T19:23:59.316Z,55.50
2022-12-11T19:27:04.503Z,50.97
2022-12-11T19:30:11.901Z,51.17
2022-12-11T19:33:14.369Z,53.45
2022-12-11T19:36:18.767Z,53.15
2022-12-11T19:39:21.413Z,50.38
2022-12-11T19:42:23.709Z,57.78
2022-12-11T19:45:27.299Z,50.20
2022-12-11T19:48:29.845Z,53.03
2022-12-11T19:51:34.053Z,54.45
2022-12-11T19:54:36.800Z,50.28
2022-12-11T19:57:39.148Z,47.35
2022-12-11T20:00:43.054Z,47.60
2022-12-11T20:03:45.391Z,38.95
2022-12-11T20:06:48.359Z,56.85
2022-12-11T20:09:50.629Z,50.95
2022-12-11T20:12:56.399Z,53.13
2022-12-11T20:16:02.622Z,49.10
2022-12-11T20:19:05.108Z,53.92
2022-12-11T20:22:07.829Z,48.42
2022-12-11T20:25:10.486Z,46.97
2022-12-11T20:28:16.103Z,47.50
2022-12-11T20:31:21.276Z,56.80
2022-12-11T20:34:23.840Z,51.75
2022-12-11T20:37:27.199Z,49.75
2022-12-11T20:40:30.978Z,45.70
2022-12-11T20:43:33.299Z,46.03
2022-12-11T20:46:36.984Z,47.10
2022-12-11T20:49:39.563Z,53.50
2022-12-11T20:52:42.959Z,46.45
2022-12-11T20:55:45.341Z,45.33
2022-12-11T20:58:48.487Z,53.42
2022-12-11T21:01:52.284Z,48.30
2022-12-11T21:04:54.558Z,49.33
2022-12-11T21:07:56.953Z,47.45
2022-12-11T21:10:59.380Z,48.35
2022-12-11T21:14:02.138Z,50.58
2022-12-11T21:17:06.045Z,62.63
2022-12-11T21:20:09.382Z,54.58
2022-12-11T21:23:11.796Z,55.75
2022-12-11T21:26:14.408Z,48.30
2022-12-11T21:29:17.149Z,45.97
2022-12-11T21:32:20.864Z,43.60
2022-12-11T21:35:23.306Z,44.00
2022-12-11T21:38:25.922Z,39.55
2022-12-11T21:41:28.396Z,51.35
2022-12-11T21:47:55.561Z,41.58
2022-12-11T21:51:05.919Z,48.67
2022-12-11T21:54:13.475Z,48.45
2022-12-11T21:57:17.372Z,42.22
2022-12-11T22:00:22.686Z,49.85
2022-12-11T22:03:26.207Z,50.08
2022-12-11T22:06:28.485Z,44.88
2022-12-11T22:09:30.736Z,48.35
2022-12-11T22:12:32.992Z,41.58
2022-12-11T22:15:35.364Z,47.65
2022-12-11T22:18:39.039Z,48.13
2022-12-11T22:21:41.623Z,48.85
2022-12-11T22:24:43.925Z,41.80
2022-12-11T22:27:46.219Z,47.25
2022-12-11T22:30:48.699Z,48.45
2022-12-11T22:33:56.040Z,46.85
2022-12-11T22:36:58.371Z,57.88
2022-12-11T22:40:01.203Z,44.67
2022-12-11T22:43:03.514Z,45.45
2022-12-11T22:46:05.840Z,43.15
2022-12-11T22:49:09.556Z,44.58
2022-12-11T22:52:11.926Z,43.03
2022-12-11T22:55:14.534Z,51.50
2022-12-11T22:58:21.643Z,42.90
2022-12-11T23:01:25.694Z,52.45
2022-12-11T23:04:29.332Z,47.05
2022-12-11T23:07:31.757Z,48.95
2022-12-11T23:10:33.962Z,41.20
2022-12-11T23:13:36.169Z,50.47
2022-12-11T23:16:39.449Z,48.72
2022-12-11T23:19:43.147Z,49.55
2022-12-11T23:22:45.404Z,43.42
2022-12-11T23:25:47.675Z,51.03
2022-12-11T23:28:50.352Z,50.05
2022-12-11T23:31:52.567Z,44.30
2022-12-11T23:34:56.234Z,45.40
2022-12-11T23:37:58.425Z,46.40
2022-12-11T23:41:01.469Z,43.63
2022-12-11T23:44:03.808Z,51.47
2022-12-11T23:47:06.249Z,46.50
2022-12-11T23:50:10.029Z,49.17
2022-12-11T23:53:12.340Z,37.88
2022-12-11T23:56:17.476Z,48.65
2022-12-11T23:59:20.544Z,42.97
